createdAt,value
2022-07-26T00:00:44.793Z,0.85
2022-07-26T00:03:11.803Z,1.25
2022-07-26T00:05:39.124Z,0.95
2022-07-26T00:08:13.568Z,1.23
2022-07-26T00:10:46.624Z,1.63
2022-07-26T00:13:13.969Z,1.15
2022-07-26T00:15:40.949Z,1.25
2022-07-26T00:18:12.364Z,1.20
2022-07-26T00:20:39.634Z,1.83
2022-07-26T00:23:08.731Z,0.90
2022-07-26T00:25:35.870Z,1.02
2022-07-26T00:28:02.934Z,1.20
2022-07-26T00:30:30.201Z,1.02
2022-07-26T00:32:57.342Z,1.10
2022-07-26T00:35:24.582Z,1.10
2022-07-26T00:37:51.846Z,0.98
2022-07-26T00:40:19.044Z,1.23
2022-07-26T00:42:46.279Z,1.00
2022-07-26T00:45:14.484Z,1.05
2022-07-26T00:47:42.080Z,1.05
2022-07-26T00:50:13.566Z,1.25
2022-07-26T00:52:44.942Z,1.30
2022-07-26T00:55:13.438Z,1.10
2022-07-26T00:57:42.031Z,1.38
2022-07-26T01:00:13.965Z,1.17
2022-07-26T01:02:41.439Z,1.00
2022-07-26T01:05:09.443Z,0.80
2022-07-26T01:07:38.478Z,1.10
2022-07-26T01:10:08.895Z,1.33
2022-07-26T01:12:36.052Z,1.33
2022-07-26T01:15:03.093Z,1.48
2022-07-26T01:17:30.163Z,1.17
2022-07-26T01:19:57.223Z,0.95
2022-07-26T01:22:24.305Z,1.02
2022-07-26T01:24:51.320Z,1.17
2022-07-26T01:27:18.562Z,1.02
2022-07-26T01:29:45.513Z,1.25
2022-07-26T01:32:12.636Z,1.20
2022-07-26T01:34:39.594Z,1.20
2022-07-26T01:37:06.823Z,0.90
2022-07-26T01:39:33.823Z,1.10
2022-07-26T01:42:00.878Z,1.13
2022-07-26T01:44:27.856Z,1.52
2022-07-26T01:46:55.050Z,1.00
2022-07-26T01:49:22.074Z,1.10
2022-07-26T01:51:49.135Z,1.17
2022-07-26T01:54:16.232Z,1.25
2022-07-26T01:56:49.927Z,1.40
2022-07-26T01:59:17.015Z,1.05
2022-07-26T02:01:44.168Z,1.02
2022-07-26T02:04:31.258Z,1.20
2022-07-26T02:06:59.776Z,1.13
2022-07-26T02:09:27.886Z,0.95
2022-07-26T02:11:59.151Z,1.70
2022-07-26T02:14:27.990Z,1.27
2022-07-26T02:17:00.046Z,1.27
2022-07-26T02:19:28.934Z,1.20
2022-07-26T02:21:56.751Z,1.10
2022-07-26T02:24:24.415Z,0.98
2022-07-26T02:26:51.474Z,1.20
2022-07-26T02:29:18.505Z,1.38
2022-07-26T02:31:48.410Z,1.10
2022-07-26T02:34:16.658Z,0.98
2022-07-26T02:36:44.178Z,1.55
2022-07-26T02:39:11.333Z,1.40
2022-07-26T02:41:38.637Z,1.38
2022-07-26T02:44:06.583Z,1.30
2022-07-26T02:46:34.363Z,1.85
2022-07-26T02:49:01.455Z,1.30
2022-07-26T02:51:28.697Z,1.38
2022-07-26T02:53:55.665Z,1.30
2022-07-26T02:56:22.867Z,1.20
2022-07-26T02:58:49.812Z,1.38
2022-07-26T03:01:17.112Z,1.10
2022-07-26T03:03:50.157Z,1.77
2022-07-26T03:06:18.430Z,1.23
2022-07-26T03:08:45.858Z,1.50
2022-07-26T03:11:12.880Z,1.60
2022-07-26T03:13:40.402Z,1.30
2022-07-26T03:16:08.294Z,1.73
2022-07-26T03:18:35.544Z,1.63
2022-07-26T03:21:03.881Z,1.80
2022-07-26T03:23:33.688Z,1.20
2022-07-26T03:26:04.140Z,1.52
2022-07-26T03:28:32.954Z,1.70
2022-07-26T03:31:00.520Z,1.38
2022-07-26T03:33:29.302Z,1.50
2022-07-26T03:35:56.714Z,1.23
2022-07-26T03:38:24.293Z,1.15
2022-07-26T03:40:51.313Z,1.40
2022-07-26T03:43:23.099Z,1.70
2022-07-26T03:45:50.857Z,1.42
2022-07-26T03:48:17.928Z,1.88
2022-07-26T03:50:44.962Z,1.23
2022-07-26T03:53:11.979Z,1.58
2022-07-26T03:55:57.673Z,1.60
2022-07-26T03:58:24.735Z,1.73
2022-07-26T04:00:53.220Z,1.38
2022-07-26T04:03:22.260Z,1.40
2022-07-26T04:05:49.299Z,1.23
2022-07-26T04:08:17.239Z,3.30
2022-07-26T04:10:51.372Z,2.50
2022-07-26T04:13:20.050Z,1.38
2022-07-26T04:15:47.434Z,2.40
2022-07-26T04:18:14.556Z,2.50
2022-07-26T04:20:41.996Z,2.85
2022-07-26T04:23:12.491Z,1.60
2022-07-26T04:25:41.718Z,1.77
2022-07-26T04:28:10.204Z,1.58
2022-07-26T04:30:37.486Z,1.48
2022-07-26T04:33:05.218Z,1.58
2022-07-26T04:35:33.145Z,1.55
2022-07-26T04:38:02.131Z,2.00
2022-07-26T04:40:33.493Z,1.70
2022-07-26T04:43:02.273Z,1.70
2022-07-26T04:45:30.296Z,2.53
2022-07-26T04:47:58.978Z,1.75
2022-07-26T04:50:28.228Z,1.75
2022-07-26T04:52:55.328Z,1.60
2022-07-26T04:55:23.293Z,1.80
2022-07-26T04:57:54.540Z,1.80
2022-07-26T05:00:24.963Z,1.98
2022-07-26T05:02:55.348Z,1.50
2022-07-26T05:05:23.476Z,1.85
2022-07-26T05:07:52.919Z,2.35
2022-07-26T05:10:21.516Z,2.45
2022-07-26T05:12:49.682Z,1.30
2022-07-26T05:15:19.096Z,1.30
2022-07-26T05:17:46.704Z,2.15
2022-07-26T05:20:16.045Z,1.80
2022-07-26T05:22:49.104Z,3.05
2022-07-26T05:25:22.954Z,3.45
2022-07-26T05:27:50.199Z,1.90
2022-07-26T05:30:17.243Z,1.40
2022-07-26T05:32:44.800Z,1.17
2022-07-26T05:35:11.902Z,1.90
2022-07-26T05:37:39.183Z,1.67
2022-07-26T05:40:07.321Z,2.25
2022-07-26T05:42:34.366Z,1.90
2022-07-26T05:45:01.949Z,1.20
2022-07-26T05:47:30.389Z,1.70
2022-07-26T05:49:57.573Z,1.30
2022-07-26T05:52:24.644Z,1.02
2022-07-26T05:54:51.695Z,1.27
2022-07-26T05:57:18.673Z,1.90
2022-07-26T05:59:45.744Z,1.23
2022-07-26T06:02:13.060Z,1.77
2022-07-26T06:04:40.287Z,1.13
2022-07-26T06:07:07.367Z,1.95
2022-07-26T06:09:34.401Z,2.25
2022-07-26T06:12:01.659Z,1.20
2022-07-26T06:14:28.714Z,1.27
2022-07-26T06:16:56.706Z,1.50
2022-07-26T06:19:24.040Z,1.10
2022-07-26T06:21:51.040Z,1.40
2022-07-26T06:24:18.174Z,1.55
2022-07-26T06:26:46.793Z,1.20
2022-07-26T06:29:13.764Z,1.27
2022-07-26T06:31:40.832Z,1.10
2022-07-26T06:34:10.052Z,0.82
2022-07-26T06:36:37.526Z,0.93
2022-07-26T06:39:04.693Z,2.72
2022-07-26T06:41:31.821Z,1.30
2022-07-26T06:43:58.767Z,1.10
2022-07-26T06:46:25.824Z,6.85
2022-07-26T06:48:57.039Z,2.17
2022-07-26T06:51:24.519Z,1.10
2022-07-26T06:53:51.580Z,1.83
2022-07-26T06:56:19.404Z,1.20
2022-07-26T06:58:46.635Z,1.20
2022-07-26T07:01:57.460Z,1.98
2022-07-26T07:04:00.904Z,1.30
2022-07-26T07:06:28.062Z,1.00
2022-07-26T07:08:55.062Z,1.67
2022-07-26T07:11:22.324Z,1.35
2022-07-26T07:13:49.691Z,1.00
2022-07-26T07:16:16.928Z,1.15
2022-07-26T07:18:43.911Z,1.00
2022-07-26T07:21:10.952Z,1.27
2022-07-26T07:23:37.959Z,1.33
2022-07-26T07:26:05.004Z,1.42
2022-07-26T07:28:33.887Z,1.38
2022-07-26T07:31:01.597Z,1.25
2022-07-26T07:33:36.447Z,1.58
2022-07-26T07:36:10.977Z,1.40
2022-07-26T07:38:37.911Z,1.40
2022-07-26T07:41:10.456Z,1.63
2022-07-26T07:43:37.449Z,1.45
2022-07-26T07:46:04.763Z,1.52
2022-07-26T07:48:31.995Z,1.50
2022-07-26T07:50:59.146Z,1.10
2022-07-26T07:53:26.725Z,1.33
2022-07-26T07:55:55.382Z,1.80
2022-07-26T07:58:22.628Z,2.03
2022-07-26T08:00:50.318Z,1.20
2022-07-26T08:03:19.340Z,1.40
2022-07-26T08:05:49.332Z,1.30
2022-07-26T08:08:17.437Z,1.67
2022-07-26T08:10:51.510Z,1.40
2022-07-26T08:13:21.288Z,1.83
2022-07-26T08:15:53.813Z,2.00
2022-07-26T08:18:22.902Z,1.45
2022-07-26T08:20:52.429Z,1.50
2022-07-26T08:23:20.683Z,1.42
2022-07-26T08:25:56.463Z,1.42
2022-07-26T08:31:15.686Z,1.73
2022-07-26T08:33:45.723Z,1.50
2022-07-26T08:36:15.716Z,2.05
2022-07-26T08:38:43.491Z,1.60
2022-07-26T08:41:10.678Z,1.90
2022-07-26T08:43:51.364Z,1.50
2022-07-26T08:46:24.767Z,1.52
2022-07-26T08:48:53.171Z,1.63
2022-07-26T08:51:22.772Z,1.60
2022-07-26T08:53:52.203Z,2.10
2022-07-26T08:56:19.239Z,1.75
2022-07-26T08:58:46.190Z,2.08
2022-07-26T09:01:13.903Z,1.50
2022-07-26T09:03:42.606Z,2.00
2022-07-26T09:06:17.008Z,1.40
2022-07-26T09:08:46.168Z,1.45
2022-07-26T09:11:27.420Z,1.35
2022-07-26T09:14:03.985Z,1.20
2022-07-26T09:16:34.139Z,1.30
2022-07-26T09:19:16.458Z,1.17
2022-07-26T09:21:43.928Z,1.60
2022-07-26T09:24:11.319Z,0.80
2022-07-26T09:26:38.902Z,1.10
2022-07-26T09:29:11.550Z,1.25
2022-07-26T09:31:39.881Z,1.30
2022-07-26T09:34:08.168Z,1.92
2022-07-26T09:36:54.669Z,1.30
2022-07-26T09:39:33.724Z,1.00
2022-07-26T09:42:27.401Z,1.15
2022-07-26T09:44:57.756Z,1.65
2022-07-26T09:47:38.820Z,1.08
2022-07-26T09:50:11.613Z,0.90
2022-07-26T09:52:39.133Z,1.02
2022-07-26T09:55:08.408Z,0.95
2022-07-26T09:57:35.536Z,1.05
2022-07-26T10:00:05.924Z,1.38
2022-07-26T10:02:35.102Z,0.63
2022-07-26T10:05:02.230Z,0.70
2022-07-26T10:07:29.529Z,1.33
2022-07-26T10:10:11.619Z,1.13
2022-07-26T10:12:38.944Z,1.38
2022-07-26T10:15:06.454Z,1.63
2022-07-26T10:17:41.888Z,1.42
2022-07-26T10:20:17.487Z,0.77
2022-07-26T10:22:51.650Z,0.82
2022-07-26T10:25:18.747Z,1.17
2022-07-26T10:27:51.918Z,0.90
2022-07-26T10:30:19.153Z,0.85
2022-07-26T10:32:52.437Z,1.10
2022-07-26T10:35:34.740Z,1.00
2022-07-26T10:38:26.579Z,1.17
2022-07-26T10:41:06.389Z,0.80
2022-07-26T10:43:42.620Z,0.70
2022-07-26T10:46:19.078Z,0.60
2022-07-26T10:48:57.341Z,1.17
2022-07-26T10:51:31.879Z,0.65
2022-07-26T10:54:07.046Z,0.85
2022-07-26T10:56:34.430Z,0.98
2022-07-26T10:59:02.539Z,0.60
2022-07-26T11:01:37.467Z,0.90
2022-07-26T11:04:06.305Z,0.70
2022-07-26T11:06:33.431Z,0.93
2022-07-26T11:09:10.734Z,0.90
2022-07-26T11:11:37.735Z,1.17
2022-07-26T11:14:16.841Z,1.30
2022-07-26T11:16:50.118Z,0.90
2022-07-26T11:19:19.803Z,1.00
2022-07-26T11:21:52.792Z,0.93
2022-07-26T11:24:22.150Z,0.70
2022-07-26T11:26:49.551Z,0.60
2022-07-26T11:29:37.870Z,0.52
2022-07-26T11:32:13.026Z,0.85
2022-07-26T11:34:45.563Z,1.05
2022-07-26T11:37:13.329Z,0.70
2022-07-26T11:39:40.769Z,1.38
2022-07-26T11:42:13.328Z,2.03
2022-07-26T11:44:44.728Z,0.82
2022-07-26T11:47:19.131Z,0.80
2022-07-26T11:50:09.283Z,0.75
2022-07-26T11:52:33.811Z,0.90
2022-07-26T11:55:00.859Z,0.80
2022-07-26T11:57:32.751Z,0.88
2022-07-26T12:00:01.576Z,0.80
2022-07-26T12:02:30.405Z,1.00
2022-07-26T12:05:21.934Z,1.08
2022-07-26T12:08:04.436Z,0.63
2022-07-26T12:10:32.054Z,0.80
2022-07-26T12:13:15.998Z,0.98
2022-07-26T12:15:53.246Z,1.20
2022-07-26T12:18:31.115Z,0.60
2022-07-26T12:21:06.820Z,0.55
2022-07-26T12:23:41.643Z,0.95
2022-07-26T12:26:26.091Z,0.90
2022-07-26T12:28:54.292Z,0.75
2022-07-26T12:31:29.111Z,0.80
2022-07-26T12:33:56.737Z,0.70
2022-07-26T12:36:27.599Z,0.90
2022-07-26T12:38:56.171Z,1.00
2022-07-26T12:41:37.435Z,1.02
2022-07-26T12:44:11.826Z,0.60
2022-07-26T12:46:39.852Z,0.70
2022-07-26T12:49:07.037Z,1.00
2022-07-26T12:51:34.634Z,0.73
2022-07-26T12:54:01.680Z,0.70
2022-07-26T12:56:28.701Z,0.70
2022-07-26T12:59:01.209Z,1.30
2022-07-26T13:01:30.635Z,0.80
2022-07-26T13:03:57.852Z,0.73
2022-07-26T13:06:25.109Z,0.35
2022-07-26T13:08:52.103Z,0.65
2022-07-26T13:11:19.369Z,0.52
2022-07-26T13:13:46.346Z,0.57
2022-07-26T13:16:13.504Z,0.50
2022-07-26T13:18:40.500Z,0.52
2022-07-26T13:21:07.652Z,0.60
2022-07-26T13:23:35.695Z,0.52
2022-07-26T13:26:03.674Z,0.55
2022-07-26T13:28:31.436Z,0.50
2022-07-26T13:30:58.671Z,0.73
2022-07-26T13:33:57.281Z,0.88
2022-07-26T13:36:24.337Z,0.68
2022-07-26T13:38:51.302Z,0.68
2022-07-26T13:41:18.413Z,0.32
2022-07-26T13:43:45.993Z,0.45
2022-07-26T13:46:13.118Z,0.30
2022-07-26T13:48:52.719Z,0.30
2022-07-26T13:52:02.049Z,1.05
2022-07-26T13:54:34.607Z,0.70
2022-07-26T13:57:04.574Z,2.00
2022-07-26T13:59:31.564Z,0.70
2022-07-26T14:01:58.718Z,0.85
2022-07-26T14:04:26.214Z,0.70
2022-07-26T14:06:53.431Z,0.63
2022-07-26T14:09:21.638Z,0.60
2022-07-26T14:11:49.165Z,0.68
2022-07-26T14:14:16.429Z,0.60
2022-07-26T14:16:43.700Z,0.63
2022-07-26T14:19:16.667Z,0.80
2022-07-26T14:21:47.230Z,0.50
2022-07-26T14:24:26.072Z,0.73
2022-07-26T14:26:56.807Z,0.55
2022-07-26T14:29:26.273Z,0.70
2022-07-26T14:31:53.471Z,0.50
2022-07-26T14:34:20.502Z,0.60
2022-07-26T14:37:41.852Z,0.40
2022-07-26T14:40:15.814Z,0.68
2022-07-26T14:42:43.602Z,0.43
2022-07-26T14:45:11.263Z,0.55
2022-07-26T14:47:38.670Z,0.60
2022-07-26T14:50:07.999Z,0.40
2022-07-26T14:52:43.454Z,1.00
2022-07-26T14:55:11.345Z,0.52
2022-07-26T14:57:40.296Z,0.50
2022-07-26T15:00:10.601Z,0.52
2022-07-26T15:02:42.554Z,0.57
2022-07-26T15:05:11.232Z,0.65
2022-07-26T15:07:39.772Z,0.50
2022-07-26T15:10:09.145Z,0.65
2022-07-26T15:12:36.341Z,0.60
2022-07-26T15:15:05.007Z,2.10
2022-07-26T15:17:32.053Z,1.10
2022-07-26T15:19:59.174Z,1.02
2022-07-26T15:22:47.353Z,1.13
2022-07-26T15:25:16.635Z,0.50
2022-07-26T15:27:43.914Z,0.52
2022-07-26T15:30:13.829Z,0.98
2022-07-26T15:32:42.637Z,1.50
2022-07-26T15:35:14.143Z,1.05
2022-07-26T15:37:43.850Z,0.50
2022-07-26T15:40:11.972Z,0.40
2022-07-26T15:42:42.425Z,0.75
2022-07-26T15:45:21.942Z,0.40
2022-07-26T15:47:56.017Z,0.50
2022-07-26T15:50:25.407Z,0.47
2022-07-26T15:52:52.730Z,1.48
2022-07-26T15:55:21.530Z,0.30
2022-07-26T15:57:48.748Z,0.50
2022-07-26T16:00:16.697Z,0.45
2022-07-26T16:02:43.934Z,0.60
2022-07-26T16:05:11.600Z,0.63
2022-07-26T16:07:41.639Z,0.35
2022-07-26T16:10:11.216Z,0.50
2022-07-26T16:12:39.195Z,0.50
2022-07-26T16:15:09.868Z,1.50
2022-07-26T16:17:37.778Z,0.50
2022-07-26T16:20:06.272Z,0.50
2022-07-26T16:22:39.929Z,0.60
2022-07-26T16:25:08.453Z,0.30
2022-07-26T16:27:35.653Z,0.98
2022-07-26T16:30:02.659Z,2.42
2022-07-26T16:32:29.717Z,0.55
2022-07-26T16:34:56.697Z,0.45
2022-07-26T16:37:23.994Z,0.65
2022-07-26T16:39:51.139Z,1.20
2022-07-26T16:42:18.172Z,0.40
2022-07-26T16:44:45.464Z,0.63
2022-07-26T16:47:12.748Z,0.60
2022-07-26T16:49:39.838Z,0.60
2022-07-26T16:52:07.434Z,1.00
2022-07-26T16:54:34.501Z,0.50
2022-07-26T16:57:01.816Z,0.50
2022-07-26T16:59:28.983Z,0.68
2022-07-26T17:01:56.186Z,0.82
2022-07-26T17:04:26.927Z,1.17
2022-07-26T17:07:22.311Z,0.85
2022-07-26T17:09:40.886Z,0.85
2022-07-26T17:12:08.215Z,0.50
2022-07-26T17:14:35.240Z,0.63
2022-07-26T17:17:02.347Z,0.80
2022-07-26T17:19:29.445Z,0.63
2022-07-26T17:21:57.570Z,0.45
2022-07-26T17:24:24.612Z,0.85
2022-07-26T17:26:51.669Z,0.88
2022-07-26T17:29:18.768Z,0.57
2022-07-26T17:31:45.865Z,0.90
2022-07-26T17:34:13.036Z,0.73
2022-07-26T17:36:40.075Z,0.52
2022-07-26T17:39:14.172Z,0.60
2022-07-26T17:41:43.668Z,0.88
2022-07-26T17:44:14.567Z,0.93
2022-07-26T17:46:42.093Z,0.73
2022-07-26T17:49:09.460Z,0.63
2022-07-26T17:51:37.688Z,0.70
2022-07-26T17:54:04.912Z,0.73
2022-07-26T17:56:32.071Z,0.82
2022-07-26T17:58:59.158Z,1.50
2022-07-26T18:01:26.259Z,1.67
2022-07-26T18:04:01.250Z,1.63
2022-07-26T18:06:28.260Z,2.75
2022-07-26T18:08:56.365Z,1.65
2022-07-26T18:11:23.698Z,0.93
2022-07-26T18:13:50.679Z,1.10
2022-07-26T18:16:17.802Z,1.20
2022-07-26T18:18:44.866Z,0.98
2022-07-26T18:21:11.901Z,2.55
2022-07-26T18:23:54.624Z,0.75
2022-07-26T18:26:26.774Z,1.02
2022-07-26T18:28:53.887Z,1.13
2022-07-26T18:31:21.049Z,1.80
2022-07-26T18:33:48.481Z,0.77
2022-07-26T18:36:15.920Z,1.30
2022-07-26T18:38:42.995Z,1.65
2022-07-26T18:41:12.277Z,0.70
2022-07-26T18:43:40.983Z,0.70
2022-07-26T18:46:08.078Z,0.90
2022-07-26T18:48:36.396Z,1.10
2022-07-26T18:51:08.627Z,0.95
2022-07-26T18:53:35.673Z,1.08
2022-07-26T18:56:04.461Z,0.70
2022-07-26T18:58:31.603Z,0.88
2022-07-26T19:00:58.756Z,0.73
2022-07-26T19:03:25.902Z,0.85
2022-07-26T19:05:53.074Z,1.08
2022-07-26T19:08:20.712Z,0.57
2022-07-26T19:10:47.930Z,1.00
2022-07-26T19:13:15.317Z,0.75
2022-07-26T19:15:43.322Z,0.90
2022-07-26T19:18:12.539Z,1.40
2022-07-26T19:20:41.348Z,2.15
2022-07-26T19:23:12.847Z,1.58
2022-07-26T19:25:41.014Z,2.38
2022-07-26T19:28:09.312Z,1.98
2022-07-26T19:30:37.513Z,4.25
2022-07-26T19:33:05.328Z,3.13
2022-07-26T19:35:32.340Z,3.97
2022-07-26T19:38:00.264Z,4.85
2022-07-26T19:40:27.466Z,6.45
2022-07-26T19:42:55.000Z,6.18
2022-07-26T19:45:22.948Z,7.47
2022-07-26T19:47:50.571Z,4.50
2022-07-26T19:50:18.758Z,3.08
2022-07-26T19:52:46.034Z,4.55
2022-07-26T19:55:13.628Z,4.32
2022-07-26T19:57:42.441Z,2.72
2022-07-26T20:00:10.711Z,1.98
2022-07-26T20:02:37.894Z,2.15
2022-07-26T20:05:05.481Z,2.70
2022-07-26T20:07:33.032Z,1.75
2022-07-26T20:10:00.752Z,1.75
2022-07-26T20:12:28.114Z,2.08
2022-07-26T20:14:55.180Z,0.90
2022-07-26T20:17:23.500Z,1.20
2022-07-26T20:19:52.415Z,1.27
2022-07-26T20:22:19.529Z,1.48
2022-07-26T20:24:47.565Z,0.85
2022-07-26T20:27:14.588Z,0.60
2022-07-26T20:29:41.664Z,1.20
2022-07-26T20:32:08.710Z,0.98
2022-07-26T20:34:35.809Z,1.23
2022-07-26T20:37:02.798Z,1.10
2022-07-26T20:39:29.916Z,1.30
2022-07-26T20:41:57.397Z,1.35
2022-07-26T20:44:28.122Z,1.65
2022-07-26T20:46:55.803Z,1.05
2022-07-26T20:49:23.971Z,1.15
2022-07-26T20:51:51.010Z,0.90
2022-07-26T20:54:18.223Z,1.00
2022-07-26T20:56:45.224Z,1.52
2022-07-26T20:59:13.582Z,1.00
2022-07-26T21:01:41.073Z,1.10
2022-07-26T21:04:12.065Z,1.10
2022-07-26T21:06:39.206Z,1.10
2022-07-26T21:09:09.831Z,0.90
2022-07-26T21:11:38.254Z,1.00
2022-07-26T21:14:05.438Z,1.23
2022-07-26T21:16:34.744Z,0.98
2022-07-26T21:19:03.442Z,1.20
2022-07-26T21:21:31.667Z,1.00
2022-07-26T21:23:58.659Z,1.30
2022-07-26T21:26:25.811Z,1.20
2022-07-26T21:28:52.797Z,1.05
2022-07-26T21:31:21.107Z,1.00
2022-07-26T21:33:48.128Z,1.30
2022-07-26T21:36:15.123Z,1.10
2022-07-26T21:38:42.443Z,1.08
2022-07-26T21:41:13.476Z,1.30
2022-07-26T21:43:42.559Z,1.10
2022-07-26T21:46:12.687Z,1.55
2022-07-26T21:48:40.949Z,1.10
2022-07-26T21:51:08.046Z,1.00
2022-07-26T21:53:36.195Z,1.33
2022-07-26T21:56:05.818Z,1.13
2022-07-26T21:58:36.541Z,1.30
2022-07-26T22:01:06.342Z,1.10
2022-07-26T22:03:36.243Z,0.93
2022-07-26T22:06:03.742Z,1.20
2022-07-26T22:08:31.974Z,1.10
2022-07-26T22:10:59.606Z,0.85
2022-07-26T22:13:26.680Z,1.25
2022-07-26T22:15:53.740Z,0.82
2022-07-26T22:18:20.797Z,1.20
2022-07-26T22:20:49.812Z,1.02
2022-07-26T22:23:18.934Z,1.00
2022-07-26T22:25:46.445Z,1.00
2022-07-26T22:28:17.908Z,1.13
2022-07-26T22:30:46.219Z,1.27
2022-07-26T22:33:13.254Z,1.98
2022-07-26T22:35:40.355Z,1.65
2022-07-26T22:38:09.569Z,1.25
2022-07-26T22:40:37.631Z,1.73
2022-07-26T22:43:06.170Z,1.38
2022-07-26T22:45:33.938Z,1.27
2022-07-26T22:48:03.016Z,1.50
2022-07-26T22:50:32.998Z,1.88
2022-07-26T22:53:01.269Z,1.75
2022-07-26T22:55:28.810Z,1.02
2022-07-26T22:57:55.934Z,1.20
2022-07-26T23:00:23.210Z,1.70
2022-07-26T23:02:50.268Z,1.40
2022-07-26T23:05:17.534Z,1.60
2022-07-26T23:07:48.007Z,1.60
2022-07-26T23:10:16.869Z,1.35
2022-07-26T23:12:44.199Z,1.38
2022-07-26T23:15:12.075Z,1.20
2022-07-26T23:17:39.138Z,1.30
2022-07-26T23:20:09.222Z,1.20
2022-07-26T23:22:36.503Z,1.40
2022-07-26T23:25:03.969Z,1.25
2022-07-26T23:27:30.913Z,1.80
2022-07-26T23:29:58.071Z,1.02
2022-07-26T23:32:25.037Z,1.30
2022-07-26T23:34:52.191Z,1.88
2022-07-26T23:37:19.247Z,1.05
2022-07-26T23:39:46.879Z,1.27
2022-07-26T23:42:13.879Z,1.30
2022-07-26T23:44:41.090Z,0.95
2022-07-26T23:47:08.104Z,1.10
2022-07-26T23:49:35.362Z,1.58
2022-07-26T23:52:02.370Z,1.38
2022-07-26T23:54:29.594Z,1.02
2022-07-26T23:56:56.585Z,1.40
2022-07-26T23:59:23.701Z,1.30
